Time;durP1;ratioP1;P1;durP2;ratioP2;P2;SDS_P1;SDS_P2;PMS_P1;PMS_P2;Temp;Humidity;BMP_temperature;BMP_pressure;BME280_temperature;BME280_humidity;BME280_pressure;Samples;Min_cycle;Max_cycle;Signal;HPM_P1;HPM_P2
2022/09/05 00:05:31;;;;;;;2.60;1.47;;;;;;;14.71;58.27;101808.62;5099299;56;1139139;-65
2022/09/05 00:11:02;;;;;;;5.87;2.27;;;;;;;14.73;58.08;101805.38;5124343;57;1138959;-70
2022/09/05 00:16:44;;;;;;;6.50;2.30;;;;;;;14.74;58.05;101811.92;5205125;56;1139402;-68
2022/09/05 00:22:43;;;;;;;3.47;1.67;;;;;;;14.70;57.94;101801.12;5210011;56;1139078;-69
2022/09/05 00:28:45;;;;;;;3.77;1.30;;;;;;;14.66;57.96;101801.48;5210254;56;1136449;-70
2022/09/05 00:34:31;;;;;;;3.47;1.37;;;;;;;14.58;58.07;101806.52;5265138;55;1136722;-69
2022/09/05 00:39:56;;;;;;;4.27;1.40;;;;;;;14.49;58.27;101801.41;5270154;55;1139007;-69
2022/09/05 00:45:29;;;;;;;1.47;1.30;;;;;;;14.38;58.56;101810.12;5188306;55;1139178;-68
2022/09/05 00:51:20;;;;;;;1.67;1.30;;;;;;;14.32;58.61;101808.41;5135660;57;1138998;-68
2022/09/05 00:57:27;;;;;;;1.47;1.40;;;;;;;14.23;58.93;101807.23;5297624;55;1138988;-71
2022/09/05 01:03:36;;;;;;;7.33;1.83;;;;;;;14.11;59.26;101811.27;5310730;55;1136978;-68
2022/09/05 01:09:45;;;;;;;6.47;1.57;;;;;;;14.00;59.47;101811.57;5284550;55;1136907;-66
2022/09/05 01:15:15;;;;;;;2.80;1.57;;;;;;;13.93;59.81;101822.73;5220312;55;1139060;-67
2022/09/05 01:20:53;;;;;;;2.10;1.40;;;;;;;13.85;60.05;101821.97;5221739;56;1138978;-70
2022/09/05 01:26:55;;;;;;;9.00;1.30;;;;;;;13.79;60.18;101818.40;5222058;56;1139099;-69
2022/09/05 01:32:37;;;;;;;7.27;1.50;;;;;;;13.72;60.61;101819.80;5221822;56;1139050;-69
2022/09/05 01:38:25;;;;;;;2.17;1.27;;;;;;;13.60;60.92;101824.62;5221880;56;1136798;-69
2022/09/05 01:44:10;;;;;;;3.43;1.40;;;;;;;13.55;61.15;101827.63;5216759;56;1136946;-67
2022/09/05 01:49:52;;;;;;;2.10;1.33;;;;;;;13.45;61.26;101821.22;5124519;57;1135101;-68
2022/09/05 01:55:34;;;;;;;3.13;1.70;;;;;;;13.39;61.78;101819.00;5131913;57;1138966;-68
2022/09/05 02:01:04;;;;;;;1.93;1.50;;;;;;;13.33;62.00;101820.27;5133817;57;1139105;-69
2022/09/05 02:06:41;;;;;;;2.83;1.37;;;;;;;13.24;62.14;101821.38;5179684;56;1139123;-69
2022/09/05 02:12:20;;;;;;;11.83;1.73;;;;;;;13.15;62.41;101825.97;5213710;56;1139113;-70
2022/09/05 02:17:48;;;;;;;1.83;1.67;;;;;;;13.11;62.62;101828.45;5187653;56;1141047;-69
2022/09/05 02:23:21;;;;;;;9.57;2.17;;;;;;;13.07;62.62;101830.45;5219344;56;1136937;-66
2022/09/05 02:28:59;;;;;;;2.73;1.60;;;;;;;13.02;62.80;101840.52;5219495;56;1136944;-70
2022/09/05 02:34:58;;;;;;;2.10;1.10;;;;;;;13.01;62.99;101836.16;5219532;56;1136916;-66
2022/09/05 02:40:37;;;;;;;2.97;1.50;;;;;;;12.95;63.14;101844.08;5219417;56;1139096;-67
2022/09/05 02:46:12;;;;;;;2.73;1.40;;;;;;;12.86;63.23;101844.67;5139366;56;1138973;-68
2022/09/05 02:52:00;;;;;;;3.67;1.50;;;;;;;12.84;63.55;101845.24;5099509;56;1138998;-70
2022/09/05 02:57:48;;;;;;;8.93;1.60;;;;;;;12.80;63.61;101841.59;5208603;56;1139051;-69
2022/09/05 03:03:19;;;;;;;14.13;1.70;;;;;;;12.73;63.76;101848.23;5207821;56;1137088;-69
2022/09/05 03:08:49;;;;;;;12.70;1.72;;;;;;;12.69;63.99;101852.41;5208127;56;1139097;-64
2022/09/05 03:14:25;;;;;;;5.77;1.60;;;;;;;12.64;64.06;101847.90;5176594;56;1139265;-69
2022/09/05 03:20:01;;;;;;;7.13;1.50;;;;;;;12.60;64.08;101848.19;4982380;59;1135136;-68
2022/09/05 03:25:43;;;;;;;4.27;1.30;;;;;;;12.53;64.22;101858.81;4994819;59;1139195;-68
2022/09/05 03:31:38;;;;;;;5.77;1.40;;;;;;;12.50;64.40;101861.69;5074616;57;1139087;-68
2022/09/05 03:37:38;;;;;;;12.13;1.63;;;;;;;12.46;64.42;101865.00;5101982;57;1139293;-69
2022/09/05 03:43:10;;;;;;;9.60;1.97;;;;;;;12.40;64.64;101862.73;5173571;56;1141204;-69
2022/09/05 03:48:49;;;;;;;6.95;1.82;;;;;;;12.31;64.73;101860.20;5091898;57;1136911;-67
2022/09/05 03:54:44;;;;;;;3.57;1.90;;;;;;;12.31;65.08;101872.14;5125487;56;1136962;-70
2022/09/05 04:00:36;;;;;;;8.55;2.00;;;;;;;12.28;65.05;101876.30;5189776;56;1138997;-70
2022/09/05 04:06:19;;;;;;;12.57;2.30;;;;;;;12.25;65.12;101884.45;5185654;56;1139188;-69
2022/09/05 04:11:54;;;;;;;15.47;2.03;;;;;;;12.21;65.10;101883.44;5202832;56;1141008;-66
2022/09/05 04:17:41;;;;;;;4.50;1.30;;;;;;;12.13;65.29;101889.20;5182411;56;1141152;-69
2022/09/05 04:23:11;;;;;;;2.90;1.77;;;;;;;12.01;65.44;101887.80;5169185;56;1139022;-67
2022/09/05 04:29:18;;;;;;;29.13;3.37;;;;;;;11.92;65.84;101886.54;4984797;58;1136868;-66
2022/09/05 04:35:06;;;;;;;19.47;2.00;;;;;;;11.78;66.17;101886.06;5026307;57;1139433;-70
2022/09/05 04:40:59;;;;;;;16.23;2.50;;;;;;;11.65;66.72;101889.05;4920908;59;1145240;-67
2022/09/05 04:46:31;;;;;;;11.30;2.13;;;;;;;11.68;67.43;101894.64;4931996;59;1141147;-66
2022/09/05 04:52:18;;;;;;;7.17;2.60;;;;;;;11.68;67.51;101893.31;5033420;57;1141235;-65
2022/09/05 04:58:05;;;;;;;19.03;2.00;;;;;;;11.70;67.63;101897.59;5099657;57;1138951;-70
2022/09/05 05:03:31;;;;;;;20.20;2.73;;;;;;;11.72;68.70;101905.45;5119957;56;1141193;-69
2022/09/05 05:09:04;;;;;;;19.47;2.90;;;;;;;11.76;68.35;101905.68;5105122;57;1139077;-68
2022/09/05 05:15:00;;;;;;;18.10;2.63;;;;;;;11.82;68.76;101909.27;5115131;57;1139054;-68
2022/09/05 05:20:36;;;;;;;5.60;1.80;;;;;;;11.87;69.09;101906.73;5136055;57;1141101;-68
2022/09/05 05:26:03;;;;;;;11.20;2.33;;;;;;;11.96;69.33;101907.48;5198351;56;1138929;-68
2022/09/05 05:31:33;;;;;;;8.17;2.30;;;;;;;12.03;69.33;101913.27;5199812;56;1141144;-66
2022/09/05 05:37:11;;;;;;;4.53;1.60;;;;;;;12.10;69.71;101913.25;5192457;56;1138766;-69
2022/09/05 05:42:34;;;;;;;4.10;1.93;;;;;;;12.26;69.91;101915.81;5262659;55;1139276;-71
2022/09/05 05:48:23;;;;;;;11.75;1.25;;;;;;;12.53;70.11;101911.41;5229094;55;1138951;-69
2022/09/05 05:54:02;;;;;;;4.83;1.67;;;;;;;12.88;69.82;101917.59;5255110;55;1139110;-73
2022/09/05 05:59:49;;;;;;;8.80;2.53;;;;;;;13.22;69.00;101929.55;5262345;55;1137012;-68
2022/09/05 06:05:47;;;;;;;16.17;2.00;;;;;;;13.51;68.20;101927.60;5248271;55;1136343;-67
2022/09/05 06:11:26;;;;;;;3.10;1.67;;;;;;;13.87;66.79;101924.25;5258747;55;1141312;-69
2022/09/05 06:16:58;;;;;;;1.63;1.10;;;;;;;14.18;65.53;101931.80;5264313;55;1138959;-66
2022/09/05 06:23:06;;;;;;;6.77;1.80;;;;;;;14.44;64.53;101927.32;5307761;55;1139078;-67
2022/09/05 06:28:45;;;;;;;6.20;1.63;;;;;;;14.73;64.05;101935.39;5282258;55;1138965;-70
2022/09/05 06:34:36;;;;;;;6.47;1.50;;;;;;;15.02;63.09;101933.25;5152294;56;1136827;-67
2022/09/05 06:40:12;;;;;;;6.30;1.40;;;;;;;15.27;62.88;101922.98;5210262;56;1136882;-70
2022/09/05 06:45:48;;;;;;;5.13;2.10;;;;;;;15.55;62.36;101917.77;5235930;56;21119;-67
2022/09/05 06:51:43;;;;;;;9.10;1.33;;;;;;;15.86;61.38;101926.08;5200229;56;1134787;-70
2022/09/05 06:57:37;;;;;;;6.80;1.53;;;;;;;16.12;58.22;101930.22;5219726;56;1139006;-71
2022/09/05 07:03:29;;;;;;;3.83;1.43;;;;;;;16.32;57.89;101934.00;5215550;56;1139060;-69
2022/09/05 07:09:23;;;;;;;2.60;1.40;;;;;;;16.49;56.54;101927.69;5210764;56;1139045;-70
2022/09/05 07:15:02;;;;;;;13.23;2.17;;;;;;;16.67;54.88;101927.18;5191915;56;1137047;-70
2022/09/05 07:20:43;;;;;;;7.60;1.40;;;;;;;16.88;55.69;101928.12;5207926;56;1138987;-70
2022/09/05 07:26:11;;;;;;;5.60;1.40;;;;;;;17.18;55.61;101932.28;5187701;56;1138968;-67
2022/09/05 07:31:37;;;;;;;17.83;2.40;;;;;;;17.38;54.09;101929.28;5205902;56;1138952;-68
2022/09/05 07:37:13;;;;;;;7.03;0.83;;;;;;;17.57;52.38;101933.42;5210735;56;1141019;-68
2022/09/05 07:42:47;;;;;;;3.13;1.17;;;;;;;17.70;52.30;101942.66;5190376;56;1138949;-66
2022/09/05 07:48:23;;;;;;;2.60;1.00;;;;;;;17.94;51.75;101943.70;5178308;56;1138989;-67
2022/09/05 07:53:46;;;;;;;7.03;1.67;;;;;;;18.24;50.02;101942.39;5191615;56;1138906;-66
2022/09/05 07:59:12;;;;;;;7.72;1.47;;;;;;;18.42;50.47;101949.80;5165926;56;1139041;-68
2022/09/05 08:04:39;;;;;;;2.35;1.50;;;;;;;18.47;49.61;101955.11;5165953;56;1136881;-67
2022/09/05 08:10:32;;;;;;;4.70;1.20;;;;;;;18.59;48.87;101955.89;5163347;56;1137030;-68
2022/09/05 08:15:58;;;;;;;8.70;1.00;;;;;;;18.73;47.73;101956.84;5196391;56;1139074;-69
2022/09/05 08:21:31;;;;;;;3.90;1.17;;;;;;;18.93;48.55;101955.92;5119545;57;1138973;-71
2022/09/05 08:27:01;;;;;;;3.20;1.10;;;;;;;19.08;47.56;101959.05;5033618;58;1138951;-68
2022/09/05 08:33:04;;;;;;;3.47;1.57;;;;;;;19.24;46.43;101948.61;5038449;58;1139055;-69
2022/09/05 08:38:29;;;;;;;6.22;1.10;;;;;;;19.44;45.00;101952.13;5061111;58;1139009;-71
2022/09/05 08:44:26;;;;;;;1.17;0.80;;;;;;;19.59;45.22;101948.05;5049502;57;1139010;-70
2022/09/05 08:50:12;;;;;;;7.28;1.30;;;;;;;19.77;44.62;101945.98;5132443;56;1136973;-69
2022/09/05 08:56:11;;;;;;;1.42;0.72;;;;;;;19.99;43.32;101932.23;5153792;56;1137363;-70
2022/09/05 09:01:47;;;;;;;7.00;1.00;;;;;;;20.12;44.73;101928.73;5174737;55;1138994;-70
2022/09/05 09:07:29;;;;;;;5.15;0.80;;;;;;;20.46;42.90;101925.52;5289765;55;1138938;-70
2022/09/05 09:13:02;;;;;;;1.82;0.90;;;;;;;20.58;41.29;101918.94;5165017;56;1139026;-70
2022/09/05 09:18:34;;;;;;;8.63;0.78;;;;;;;20.65;40.05;101917.33;5147070;56;1139041;-67
2022/09/05 09:24:04;;;;;;;2.47;0.77;;;;;;;20.78;39.03;101920.50;5190385;55;1138971;-68
2022/09/05 09:29:28;;;;;;;7.00;0.57;;;;;;;20.79;39.27;101914.62;5260209;55;1139011;-68
2022/09/05 09:35:25;;;;;;;6.55;0.60;;;;;;;20.96;38.84;101911.95;5146451;55;1137004;-70
2022/09/05 09:40:59;;;;;;;1.35;0.60;;;;;;;21.07;37.60;101905.53;5156160;56;1136952;-68
2022/09/05 09:46:45;;;;;;;4.35;0.80;;;;;;;21.45;38.23;101898.98;5111051;56;1139030;-65
2022/09/05 09:52:40;;;;;;;3.83;0.40;;;;;;;21.45;38.23;101898.98;5194622;55;1139004;-69
2022/09/05 09:58:33;;;;;;;2.22;0.70;;;;;;;21.58;34.78;101892.68;5203235;55;1139104;-69
2022/09/05 10:04:12;;;;;;;2.52;0.53;;;;;;;21.77;34.28;101892.98;5185230;56;1139124;-67
2022/09/05 10:09:48;;;;;;;9.60;0.55;;;;;;;21.78;33.81;101890.64;5202579;56;1139503;-68
2022/09/05 10:15:36;;;;;;;4.28;0.50;;;;;;;21.88;34.31;101879.24;5174536;56;1136859;-70
2022/09/05 10:21:37;;;;;;;2.75;0.20;;;;;;;22.03;33.69;101871.44;5167175;56;1137180;-67
2022/09/05 10:27:35;;;;;;;1.40;0.50;;;;;;;22.08;33.70;101874.00;5165340;56;1139074;-70
2022/09/05 10:33:37;;;;;;;12.55;1.05;;;;;;;22.18;33.34;101865.78;5170549;56;1139082;-70
2022/09/05 10:39:22;;;;;;;0.35;0.35;;;;;;;22.26;32.78;101863.14;5166778;56;1141253;-70
2022/09/05 10:44:56;;;;;;;5.90;0.40;;;;;;;22.42;33.59;101854.27;5209191;55;1137366;-70
2022/09/05 10:50:27;;;;;;;3.10;0.40;;;;;;;22.58;33.21;101850.77;5233039;55;1136868;-64
2022/09/05 10:56:21;;;;;;;3.00;0.60;;;;;;;22.79;32.83;101853.86;5162712;56;1137039;-68
2022/09/05 11:02:06;;;;;;;5.43;0.53;;;;;;;22.93;33.25;101855.05;5204726;56;1139149;-66
2022/09/05 11:08:01;;;;;;;4.35;0.70;;;;;;;22.97;31.97;101835.67;5184719;56;1139132;-66
2022/09/05 11:13:48;;;;;;;2.02;0.40;;;;;;;23.10;31.84;101833.81;5195296;56;1138972;-69
2022/09/05 11:19:27;;;;;;;14.58;0.78;;;;;;;23.14;31.03;101837.37;5214829;55;1139424;-68
2022/09/05 11:24:57;;;;;;;6.22;0.50;;;;;;;23.16;31.65;101830.45;5184231;55;1140960;-69
2022/09/05 11:30:36;;;;;;;1.30;0.45;;;;;;;23.30;29.99;101831.62;5216338;55;1136934;-67
2022/09/05 11:36:18;;;;;;;2.47;0.47;;;;;;;23.41;30.98;101832.11;5178997;55;1136920;-68
2022/09/05 11:42:07;;;;;;;24.12;1.00;;;;;;;23.48;29.79;101827.73;5173420;56;1139091;-65
2022/09/05 11:48:02;;;;;;;1.25;0.35;;;;;;;23.55;28.48;101825.20;5166003;56;1141119;-68
2022/09/05 11:53:41;;;;;;;5.42;0.53;;;;;;;23.55;28.91;101825.70;5178575;56;1138962;-66
2022/09/05 11:59:23;;;;;;;0.68;0.40;;;;;;;23.54;28.27;101822.16;5171036;56;1139280;-71
2022/09/05 12:05:23;;;;;;;0.93;0.30;;;;;;;23.72;28.20;101821.95;5133901;56;1139032;-69
2022/09/05 12:11:26;;;;;;;1.12;0.20;;;;;;;23.74;28.20;101817.22;4901887;59;1137166;-65
2022/09/05 12:17:02;;;;;;;3.26;0.96;;;;;;;23.71;27.46;101822.97;4924522;58;1139089;-67
2022/09/05 12:22:46;;;;;;;5.42;0.50;;;;;;;23.85;28.80;101816.33;4844200;60;1139205;-69
2022/09/05 12:28:10;;;;;;;;;;;;;;;23.98;28.17;101812.26;4871613;59;1140193;-64
2022/09/05 12:33:33;;;;;;;7.72;0.80;;;;;;;24.06;26.33;101818.45;4886833;59;976413;-68
2022/09/05 12:39:32;;;;;;;4.65;0.42;;;;;;;23.97;26.82;101808.71;4836644;59;1136577;-67
2022/09/05 12:45:32;;;;;;;5.97;0.30;;;;;;;24.01;27.41;101792.45;4879393;56;1139049;-71
2022/09/05 12:51:16;;;;;;;5.83;0.20;;;;;;;24.16;28.67;101787.14;4960815;58;1137106;-68
2022/09/05 12:56:51;;;;;;;2.70;0.50;;;;;;;24.30;27.94;101781.52;4942855;58;1137105;-68
2022/09/05 13:02:25;;;;;;;4.47;0.40;;;;;;;24.41;27.53;101786.03;4948701;58;1139136;-70
2022/09/05 13:07:57;;;;;;;9.75;0.70;;;;;;;24.38;27.32;101784.20;4938293;57;1139179;-71
2022/09/05 13:13:38;;;;;;;4.80;0.30;;;;;;;24.41;26.86;101780.62;4861798;60;1139007;-68
2022/09/05 13:19:07;;;;;;;3.85;0.30;;;;;;;24.36;27.17;101772.70;4872758;58;1139320;-68
2022/09/05 13:24:37;;;;;;;4.70;0.50;;;;;;;24.34;27.29;101776.09;5109872;56;1139108;-67
2022/09/05 13:30:07;;;;;;;5.35;0.30;;;;;;;24.23;27.12;101767.02;5105959;57;1139046;-66
2022/09/05 13:35:35;;;;;;;6.87;0.40;;;;;;;24.22;26.83;101768.87;5102627;57;1137051;-68
2022/09/05 13:41:00;;;;;;;11.40;0.80;;;;;;;24.30;27.29;101762.09;5114641;57;1137011;-68
2022/09/05 13:46:46;;;;;;;7.03;0.53;;;;;;;24.22;26.74;101761.27;5104272;56;1139118;-71
2022/09/05 13:52:24;;;;;;;4.10;0.10;;;;;;;24.26;26.81;101760.78;5119746;56;1138998;-72
2022/09/05 13:58:06;;;;;;;1.42;0.70;;;;;;;24.24;27.41;101745.24;5103475;56;1139099;-65
2022/09/05 14:04:10;;;;;;;6.22;0.82;;;;;;;24.30;27.82;101741.80;5156674;56;1138928;-70
2022/09/05 14:09:51;;;;;;;2.77;0.30;;;;;;;24.32;26.91;101742.47;5245941;55;1139007;-68
2022/09/05 14:15:48;;;;;;;1.50;0.50;;;;;;;24.30;27.51;101732.84;5288252;55;1139053;-67
2022/09/05 14:21:16;;;;;;;15.08;0.68;;;;;;;24.32;26.71;101722.19;5220612;56;1136913;-67
2022/09/05 14:26:49;;;;;;;9.23;0.70;;;;;;;24.07;26.39;101720.13;5237408;55;1139128;-67
2022/09/05 14:32:28;;;;;;;2.16;0.30;;;;;;;24.14;27.28;101721.59;5269047;55;1139163;-68
2022/09/05 14:37:46;;;;;;;2.10;0.40;;;;;;;24.10;27.10;101721.64;5127211;56;1138975;-68
2022/09/05 14:43:12;;;;;;;6.67;0.60;;;;;;;23.85;27.73;101716.86;5266205;55;1139016;-70
2022/09/05 14:48:51;;;;;;;0.50;0.50;;;;;;;23.80;27.09;101719.28;5254754;55;1139056;-69
2022/09/05 14:54:11;;;;;;;2.62;0.50;;;;;;;23.79;26.86;101719.78;5233174;55;1138987;-67
2022/09/05 14:59:31;;;;;;;1.37;0.47;;;;;;;23.74;28.18;101708.66;5239406;55;1138980;-67
2022/09/05 15:04:49;;;;;;;4.33;0.60;;;;;;;23.75;27.19;101706.28;5250685;55;1139122;-68
2022/09/05 15:10:11;;;;;;;7.62;1.10;;;;;;;23.70;27.98;101703.77;5279815;55;1139318;-69
2022/09/05 15:15:40;;;;;;;3.98;1.42;;;;;;;23.62;27.79;101705.17;5263712;55;1139377;-68
2022/09/05 15:20:46;;;;;;;0.93;0.80;;;;;;;23.53;27.92;101699.48;5288322;55;1137181;-66
2022/09/05 15:26:01;;;;;;;19.25;1.55;;;;;;;23.35;27.71;101699.67;5271469;55;1136973;-68
2022/09/05 15:31:11;;;;;;;4.37;0.88;;;;;;;23.20;28.36;101696.01;5288175;55;1139178;-67
2022/09/05 15:36:44;;;;;;;0.70;0.40;;;;;;;23.12;29.10;101698.20;5299314;55;1137093;-68
2022/09/05 15:41:46;;;;;;;0.95;0.82;;;;;;;23.10;28.82;101695.67;5310631;55;1136911;-70
2022/09/05 15:47:00;;;;;;;6.37;1.05;;;;;;;23.12;29.18;101693.66;5310824;55;1137252;-72
2022/09/05 15:52:23;;;;;;;5.37;1.05;;;;;;;23.13;29.39;101687.24;5286452;55;1137144;-69
2022/09/05 15:57:50;;;;;;;3.87;1.95;;;;;;;23.11;28.93;101684.37;5283433;55;1138912;-69
2022/09/05 16:02:56;;;;;;;11.20;5.30;;;;;;;23.08;29.08;101683.36;4980966;58;1139128;-68
2022/09/05 16:08:09;;;;;;;2.90;1.50;;;;;;;22.97;28.80;101676.98;5032956;58;1141280;-69
2022/09/05 16:13:16;;;;;;;2.47;2.10;;;;;;;22.89;29.30;101678.36;4973205;59;1139135;-66
2022/09/05 16:18:32;;;;;;;2.27;0.72;;;;;;;22.74;29.03;101683.08;4972942;59;1139177;-71
2022/09/05 16:23:44;;;;;;;6.25;1.22;;;;;;;22.63;29.43;101686.59;4926970;59;1139028;-69
2022/09/05 16:29:00;;;;;;;3.58;0.78;;;;;;;22.56;29.97;101679.70;4892256;60;1139291;-68
2022/09/05 16:34:11;;;;;;;5.50;2.05;;;;;;;22.50;30.06;101672.28;4888928;60;1139270;-69
2022/09/05 16:39:21;;;;;;;18.67;2.55;;;;;;;22.48;30.37;101672.95;5041106;57;1139069;-66
2022/09/05 16:44:49;;;;;;;8.93;4.50;;;;;;;22.43;30.66;101673.48;5190511;56;1141321;-67
2022/09/05 16:50:14;;;;;;;19.90;2.72;;;;;;;22.35;31.16;101676.66;5199472;56;1139303;-67
2022/09/05 16:55:34;;;;;;;9.95;1.25;;;;;;;22.23;31.60;101666.72;5151169;56;1141103;-71
2022/09/05 17:01:36;;;;;;;9.80;1.90;;;;;;;22.12;31.88;101665.70;5219384;56;1139412;-66
2022/09/05 17:06:59;;;;;;;10.53;1.60;;;;;;;22.00;32.33;101658.92;5179602;56;1137047;-67
2022/09/05 17:12:16;;;;;;;9.00;1.40;;;;;;;21.79;32.75;101661.22;5151439;57;1139153;-70
2022/09/05 17:17:27;;;;;;;11.95;1.02;;;;;;;21.64;33.44;101665.05;5150919;57;1137404;-67
2022/09/05 17:22:59;;;;;;;8.03;1.20;;;;;;;21.51;33.89;101667.36;5146852;57;1139307;-69
2022/09/05 17:28:06;;;;;;;3.67;1.10;;;;;;;21.35;34.53;101670.81;5135581;57;1148758;-68
2022/09/05 17:33:20;;;;;;;14.28;1.07;;;;;;;21.21;35.06;101674.95;5120575;57;1139107;-71
2022/09/05 17:38:39;;;;;;;8.88;1.25;;;;;;;21.02;35.94;101673.30;5150884;57;1141327;-68
2022/09/05 17:43:59;;;;;;;26.48;1.67;;;;;;;20.82;36.42;101678.53;5151577;57;1139008;-68
2022/09/05 17:49:07;;;;;;;19.15;1.60;;;;;;;20.64;36.81;101672.34;5143674;57;1141256;-67
2022/09/05 17:54:18;;;;;;;22.87;3.00;;;;;;;20.48;37.47;101678.43;5130172;57;1141156;-69
2022/09/05 17:59:27;;;;;;;12.40;1.50;;;;;;;20.26;38.29;101675.70;5072237;57;1141137;-66
2022/09/05 18:04:47;;;;;;;1.32;1.22;;;;;;;19.90;38.88;101694.96;5095712;56;1141262;-69
2022/09/05 18:10:01;;;;;;;7.47;0.80;;;;;;;19.90;38.88;101694.96;5205538;56;1139073;-68
2022/09/05 18:15:14;;;;;;;7.50;1.25;;;;;;;19.75;39.93;101704.52;5219273;55;1139223;-67
2022/09/05 18:20:31;;;;;;;;;;;;;;;19.72;39.95;101706.65;5217179;56;1139155;-67
2022/09/05 18:26:00;;;;;;;3.02;1.35;;;;;;;19.60;39.81;101715.41;5227904;55;976361;-68
2022/09/05 18:31:42;;;;;;;8.43;1.90;;;;;;;19.47;40.75;101717.55;5191025;55;1136835;-65
2022/09/05 18:36:51;;;;;;;31.30;2.52;;;;;;;19.24;41.24;101715.25;5190880;56;1136967;-68
2022/09/05 18:42:04;;;;;;;28.98;10.32;;;;;;;19.01;41.16;101716.56;5232695;55;1138930;-68
2022/09/05 18:47:15;;;;;;;10.70;3.58;;;;;;;18.93;41.50;101720.48;5158680;56;1141246;-69
2022/09/05 18:52:35;;;;;;;8.34;2.72;;;;;;;18.89;41.67;101723.09;5185719;55;1139005;-65
2022/09/05 18:57:45;;;;;;;5.20;3.30;;;;;;;18.75;42.42;101728.89;5185023;55;1136828;-68
2022/09/05 19:02:58;;;;;;;4.45;2.33;;;;;;;18.62;42.90;101733.20;5182463;56;1137062;-71
2022/09/05 19:08:16;;;;;;;5.00;1.65;;;;;;;18.57;43.25;101736.77;5248207;55;1134932;-68
2022/09/05 19:13:29;;;;;;;4.97;1.30;;;;;;;18.46;43.73;101731.55;5269193;55;1139043;-71
2022/09/05 19:18:38;;;;;;;4.10;1.92;;;;;;;18.35;44.39;101730.32;5245649;55;1139029;-67
2022/09/05 19:23:56;;;;;;;5.05;1.57;;;;;;;18.25;45.00;101728.98;5178948;56;1139156;-67
2022/09/05 19:29:07;;;;;;;8.10;1.42;;;;;;;18.18;45.77;101734.03;5194975;56;1139015;-69
2022/09/05 19:34:29;;;;;;;21.20;2.05;;;;;;;18.14;46.26;101727.78;5170879;56;1138986;-71
2022/09/05 19:39:48;;;;;;;7.75;1.15;;;;;;;18.07;46.88;101723.95;5136229;56;1141135;-68
2022/09/05 19:45:05;;;;;;;1.45;1.20;;;;;;;18.03;47.38;101717.17;5156020;56;1139068;-68
2022/09/05 19:50:10;;;;;;;7.33;1.30;;;;;;;17.90;48.13;101719.61;5191374;56;1139020;-68
2022/09/05 19:55:26;;;;;;;5.17;1.37;;;;;;;17.83;48.48;101722.98;5180408;56;1139181;-68
2022/09/05 20:00:35;;;;;;;4.00;1.40;;;;;;;17.70;49.05;101718.37;5161085;56;1138584;-73
2022/09/05 20:05:42;;;;;;;4.85;1.20;;;;;;;17.60;49.45;101710.27;5174021;56;1139024;-70
2022/09/05 20:10:54;;;;;;;5.12;1.42;;;;;;;17.53;50.13;101722.02;5166218;56;1139062;-66
2022/09/05 20:16:01;;;;;;;5.65;1.75;;;;;;;17.49;50.25;101721.07;5146202;56;1139109;-71
2022/09/05 20:21:14;;;;;;;3.62;1.75;;;;;;;17.34;50.88;101717.06;5131513;56;1139076;-71
2022/09/05 20:26:24;;;;;;;3.85;1.47;;;;;;;17.31;51.35;101720.84;5191919;56;1139003;-68
2022/09/05 20:31:33;;;;;;;5.75;1.27;;;;;;;17.23;51.65;101728.70;5176832;56;1139231;-70
2022/09/05 20:36:47;;;;;;;4.95;0.95;;;;;;;17.17;52.11;101726.05;5203972;56;1139054;-69
2022/09/05 20:41:53;;;;;;;7.95;0.98;;;;;;;17.11;52.08;101723.08;5189152;56;1137086;-67
2022/09/05 20:47:13;;;;;;;2.75;1.17;;;;;;;17.04;52.42;101725.91;5181870;56;1136930;-67
2022/09/05 20:52:45;;;;;;;6.55;1.72;;;;;;;16.90;53.41;101724.90;5179431;56;1136863;-70
2022/09/05 20:57:45;;;;;;;5.65;1.30;;;;;;;16.68;54.32;101717.35;5191832;56;1137222;-67
2022/09/05 21:02:57;;;;;;;3.70;1.15;;;;;;;16.47;54.51;101718.66;5193763;56;1137008;-65
2022/09/05 21:08:31;;;;;;;1.60;1.43;;;;;;;16.29;55.04;101714.83;5177079;57;1137068;-66
2022/09/05 21:13:41;;;;;;;6.70;1.50;;;;;;;16.13;55.78;101715.73;5153262;55;1138997;-68
2022/09/05 21:18:51;;;;;;;4.92;1.70;;;;;;;16.02;56.46;101715.77;5135589;57;1139030;-68
2022/09/05 21:24:11;;;;;;;7.20;1.40;;;;;;;15.84;56.89;101724.77;5133867;57;1139083;-68
2022/09/05 21:29:25;;;;;;;4.43;1.57;;;;;;;15.82;57.53;101730.23;5133733;57;1139016;-67
2022/09/05 21:34:39;;;;;;;6.37;1.97;;;;;;;15.78;57.48;101726.59;5133695;57;1138994;-68
2022/09/05 21:39:52;;;;;;;8.03;1.13;;;;;;;15.69;58.03;101724.19;5133735;57;1139052;-70
2022/09/05 21:44:58;;;;;;;1.53;1.33;;;;;;;15.63;58.48;101720.66;5151370;56;1138960;-70
2022/09/05 21:50:04;;;;;;;15.30;1.10;;;;;;;15.61;58.23;101726.59;5175530;56;1139032;-68
2022/09/05 21:55:10;;;;;;;2.33;1.00;;;;;;;15.56;58.37;101726.13;5219720;56;1141318;-69
2022/09/05 22:00:16;;;;;;;3.37;0.97;;;;;;;15.51;58.94;101725.61;5220283;56;1139245;-67
2022/09/05 22:05:25;;;;;;;0.93;0.93;;;;;;;15.45;59.26;101726.08;5190273;56;1139129;-68
2022/09/05 22:10:30;;;;;;;1.73;1.13;;;;;;;15.40;59.31;101730.95;5220187;56;1138987;-68
2022/09/05 22:15:37;;;;;;;5.00;1.20;;;;;;;15.30;59.99;101732.13;5220220;56;1138992;-69
2022/09/05 22:20:48;;;;;;;4.87;1.30;;;;;;;15.24;59.97;101735.30;5220193;56;1139066;-68
2022/09/05 22:25:54;;;;;;;2.17;1.10;;;;;;;15.17;60.59;101734.54;5220084;56;1139035;-69
2022/09/05 22:31:02;;;;;;;1.93;1.30;;;;;;;15.09;60.91;101736.00;5219806;56;1139338;-69
2022/09/05 22:36:08;;;;;;;6.63;1.37;;;;;;;14.97;61.21;101738.25;5219924;56;1138997;-67
2022/09/05 22:41:14;;;;;;;5.30;0.93;;;;;;;14.86;61.39;101728.05;5189166;56;1139064;-68
2022/09/05 22:46:20;;;;;;;2.27;1.10;;;;;;;14.79;62.27;101717.04;5175437;56;1139113;-67
2022/09/05 22:51:26;;;;;;;2.90;1.33;;;;;;;14.70;62.42;101722.56;5107352;57;1139030;-67
2022/09/05 22:56:36;;;;;;;5.67;1.23;;;;;;;14.64;62.28;101723.05;5108849;57;1139055;-67
2022/09/05 23:01:42;;;;;;;1.00;1.00;;;;;;;14.58;62.43;101727.49;5129863;57;1139065;-68
2022/09/05 23:06:48;;;;;;;1.83;0.90;;;;;;;14.57;62.63;101727.60;5134144;57;1138993;-66
2022/09/05 23:11:54;;;;;;;1.27;1.00;;;;;;;14.54;62.51;101718.51;5063281;57;1139052;-72
2022/09/05 23:17:00;;;;;;;2.17;1.13;;;;;;;14.46;63.39;101708.93;5066278;57;1139244;-66
2022/09/05 23:22:06;;;;;;;6.00;1.50;;;;;;;14.30;63.46;101709.19;5096894;57;1139056;-70
2022/09/05 23:27:11;;;;;;;2.60;1.07;;;;;;;14.23;64.08;101707.45;5072861;57;1139173;-68
2022/09/05 23:32:17;;;;;;;6.63;1.13;;;;;;;14.25;63.91;101708.67;5114270;57;1139285;-68
2022/09/05 23:37:23;;;;;;;2.47;0.90;;;;;;;14.19;63.84;101706.48;5136448;57;1136943;-68
2022/09/05 23:42:28;;;;;;;1.90;1.50;;;;;;;14.14;63.97;101716.13;5136383;57;1136936;-68
2022/09/05 23:47:36;;;;;;;1.53;1.20;;;;;;;14.07;64.06;101702.89;5100261;56;1136934;-72
2022/09/05 23:52:46;;;;;;;1.13;0.90;;;;;;;14.02;64.21;101707.72;5125573;56;1136899;-66
2022/09/05 23:57:59;;;;;;;1.83;1.00;;;;;;;13.98;64.54;101704.91;5136275;57;1136980;-67
